createdAt,value
2022-10-09T00:02:52.476Z,100344.53
2022-10-09T00:05:55.582Z,100334.03
2022-10-09T00:08:59.648Z,100345.59
2022-10-09T00:12:02.651Z,100332.72
2022-10-09T00:15:05.922Z,100326.66
2022-10-09T00:18:10.070Z,100319.03
2022-10-09T00:21:22.552Z,100314.13
2022-10-09T00:24:25.558Z,100324.47
2022-10-09T00:27:28.395Z,100323.69
2022-10-09T00:30:31.757Z,100316.41
2022-10-09T00:33:35.389Z,100326.41
2022-10-09T00:36:38.377Z,100330.62
2022-10-09T00:39:41.116Z,100327.97
2022-10-09T00:42:45.865Z,100317.09
2022-10-09T00:45:52.714Z,100330.31
2022-10-09T00:49:03.675Z,100324.09
2022-10-09T00:52:07.644Z,100328.03
2022-10-09T00:55:11.207Z,100331.87
2022-10-09T00:58:13.991Z,100332.31
2022-10-09T01:01:17.066Z,100324.16
2022-10-09T01:04:20.838Z,100313.25
2022-10-09T01:07:47.844Z,100318.87
2022-10-09T01:10:56.411Z,100308.47
2022-10-09T01:14:14.581Z,100314.72
2022-10-09T01:17:24.149Z,100305.09
2022-10-09T01:20:41.300Z,100292.88
2022-10-09T01:24:10.629Z,100301.09
2022-10-09T01:27:23.193Z,100298.41
2022-10-09T01:30:26.074Z,100299.91
2022-10-09T01:33:31.207Z,100305.63
2022-10-09T01:36:34.194Z,100306.13
2022-10-09T01:39:37.588Z,100316.97
2022-10-09T01:42:40.728Z,100310.75
2022-10-09T01:45:45.434Z,100315.25
2022-10-09T01:48:53.474Z,100323.16
2022-10-09T01:52:18.108Z,100324.16
2022-10-09T01:55:30.266Z,100321.00
2022-10-09T01:58:44.739Z,100335.37
2022-10-09T02:01:48.216Z,100349.09
2022-10-09T02:04:51.576Z,100341.00
2022-10-09T02:07:55.455Z,100344.47
2022-10-09T02:11:00.468Z,100332.50
2022-10-09T02:14:03.191Z,100335.19
2022-10-09T02:17:10.376Z,100330.31
2022-10-09T02:20:20.251Z,100323.59
2022-10-09T02:23:24.035Z,100335.03
2022-10-09T02:26:27.236Z,100355.59
2022-10-09T02:29:30.283Z,100368.16
2022-10-09T02:32:33.072Z,100363.50
2022-10-09T02:35:38.185Z,100362.72
2022-10-09T02:38:40.953Z,100369.31
2022-10-09T02:41:44.207Z,100367.50
2022-10-09T02:44:46.989Z,100355.87
2022-10-09T02:47:50.203Z,100356.63
2022-10-09T02:50:52.968Z,100353.09
2022-10-09T02:53:55.944Z,100360.94
2022-10-09T02:56:58.663Z,100365.75
2022-10-09T03:00:01.687Z,100373.09
2022-10-09T03:03:05.468Z,100363.78
2022-10-09T03:06:14.078Z,100363.88
2022-10-09T03:09:16.748Z,100368.47
2022-10-09T03:12:22.201Z,100366.16
2022-10-09T03:15:24.821Z,100367.81
2022-10-09T03:18:27.582Z,100390.63
2022-10-09T03:21:30.423Z,100415.16
2022-10-09T03:24:33.451Z,100428.66
2022-10-09T03:27:37.002Z,100418.66
2022-10-09T03:30:41.882Z,100407.59
2022-10-09T03:33:44.713Z,100397.66
2022-10-09T03:36:47.770Z,100395.19
2022-10-09T03:39:50.570Z,100418.28
2022-10-09T03:42:53.543Z,100409.03
2022-10-09T03:46:00.938Z,100399.63
2022-10-09T03:49:04.326Z,100393.81
2022-10-09T03:52:07.275Z,100408.25
2022-10-09T03:55:10.322Z,100410.94
2022-10-09T03:58:13.431Z,100403.16
2022-10-09T04:01:16.628Z,100391.91
2022-10-09T04:04:19.674Z,100383.28
2022-10-09T04:07:22.391Z,100394.84
2022-10-09T04:10:25.729Z,100392.28
2022-10-09T04:13:28.632Z,100398.62
2022-10-09T04:16:31.861Z,100425.38
2022-10-09T04:19:35.020Z,100427.69
2022-10-09T04:22:38.026Z,100430.78
2022-10-09T04:25:40.752Z,100428.84
2022-10-09T04:28:43.855Z,100423.78
2022-10-09T04:31:47.160Z,100432.25
2022-10-09T04:34:50.285Z,100436.53
2022-10-09T04:37:53.022Z,100442.72
2022-10-09T04:41:11.837Z,100434.47
2022-10-09T04:44:17.504Z,100438.69
2022-10-09T04:47:20.522Z,100440.63
2022-10-09T04:50:23.296Z,100457.31
2022-10-09T04:53:34.523Z,100458.00
2022-10-09T04:56:37.902Z,100447.84
2022-10-09T04:59:40.923Z,100454.34
2022-10-09T05:02:43.756Z,100450.00
2022-10-09T05:05:46.848Z,100469.47
2022-10-09T05:08:49.759Z,100462.50
2022-10-09T05:11:52.777Z,100465.22
2022-10-09T05:14:56.762Z,100466.00
2022-10-09T05:17:59.767Z,100471.16
2022-10-09T05:21:04.961Z,100482.84
2022-10-09T05:24:10.476Z,100477.06
2022-10-09T05:27:13.407Z,100470.41
2022-10-09T05:30:16.409Z,100479.34
2022-10-09T05:33:19.601Z,100482.84
2022-10-09T05:36:22.806Z,100491.81
2022-10-09T05:39:25.545Z,100486.38
2022-10-09T05:42:28.532Z,100478.28
2022-10-09T05:45:31.267Z,100485.28
2022-10-09T05:48:34.432Z,100495.84
2022-10-09T05:51:38.815Z,100497.84
2022-10-09T05:54:42.085Z,100512.38
2022-10-09T05:57:45.109Z,100514.03
2022-10-09T06:00:48.149Z,100514.91
2022-10-09T06:03:53.599Z,100514.34
2022-10-09T06:06:56.909Z,100519.53
2022-10-09T06:09:59.850Z,100522.41
2022-10-09T06:13:02.766Z,100526.78
2022-10-09T06:16:05.923Z,100537.41
2022-10-09T06:19:11.792Z,100538.25
2022-10-09T06:22:14.786Z,100540.78
2022-10-09T06:25:17.525Z,100546.94
2022-10-09T06:28:21.116Z,100551.28
2022-10-09T06:31:26.226Z,100555.22
2022-10-09T06:34:29.235Z,100556.44
2022-10-09T06:37:31.925Z,100551.50
2022-10-09T06:40:36.755Z,100548.41
2022-10-09T06:43:39.821Z,100558.31
2022-10-09T06:46:44.146Z,100559.59
2022-10-09T06:49:46.948Z,100561.03
2022-10-09T06:52:51.453Z,100563.06
2022-10-09T06:55:55.793Z,100568.66
2022-10-09T06:59:06.471Z,100567.50
2022-10-09T07:02:09.369Z,100569.31
2022-10-09T07:05:13.744Z,100573.53
2022-10-09T07:08:16.433Z,100578.09
2022-10-09T07:11:23.184Z,100576.97
2022-10-09T07:14:26.071Z,100585.59
2022-10-09T07:17:29.063Z,100584.66
2022-10-09T07:20:31.763Z,100592.25
2022-10-09T07:23:36.040Z,100589.63
2022-10-09T07:26:41.927Z,100592.72
2022-10-09T07:29:44.981Z,100594.03
2022-10-09T07:32:47.931Z,100585.56
2022-10-09T07:35:55.799Z,100593.50
2022-10-09T07:38:58.899Z,100591.88
2022-10-09T07:42:02.668Z,100596.75
2022-10-09T07:45:05.947Z,100598.78
2022-10-09T07:48:09.251Z,100590.69
2022-10-09T07:51:14.098Z,100590.16
2022-10-09T07:54:17.308Z,100587.88
2022-10-09T07:57:20.002Z,100600.94
2022-10-09T08:00:24.047Z,100592.31
2022-10-09T08:03:27.009Z,100594.72
2022-10-09T08:06:30.319Z,100601.88
2022-10-09T08:09:33.393Z,100595.72
2022-10-09T08:12:36.076Z,100596.91
2022-10-09T08:15:43.221Z,100595.34
2022-10-09T08:18:46.122Z,100594.19
2022-10-09T08:21:49.161Z,100601.25
2022-10-09T08:24:51.848Z,100600.94
2022-10-09T08:27:55.331Z,100597.03
2022-10-09T08:30:58.156Z,100600.94
2022-10-09T08:34:02.961Z,100593.09
2022-10-09T08:37:05.677Z,100606.44
2022-10-09T08:40:16.350Z,100604.13
2022-10-09T08:43:21.870Z,100603.69
2022-10-09T08:46:49.745Z,100602.91
2022-10-09T08:50:09.230Z,100609.63
2022-10-09T08:53:38.604Z,100608.06
2022-10-09T08:56:41.389Z,100605.69
2022-10-09T08:59:46.341Z,100608.03
2022-10-09T09:02:58.621Z,100620.94
2022-10-09T09:06:22.752Z,100609.97
2022-10-09T09:09:38.328Z,100615.41
2022-10-09T09:12:51.426Z,100622.88
2022-10-09T09:16:18.417Z,100619.72
2022-10-09T09:19:28.080Z,100624.03
2022-10-09T09:22:32.442Z,100628.66
2022-10-09T09:25:40.382Z,100632.19
2022-10-09T09:28:44.031Z,100635.28
2022-10-09T09:31:48.550Z,100631.81
2022-10-09T09:34:52.142Z,100630.97
2022-10-09T09:37:55.938Z,100639.19
2022-10-09T09:40:58.898Z,100639.59
2022-10-09T09:44:02.812Z,100638.69
2022-10-09T09:47:20.522Z,100634.00
2022-10-09T09:50:50.512Z,100635.97
2022-10-09T09:54:04.173Z,100630.84
2022-10-09T09:57:14.872Z,100639.75
2022-10-09T10:00:23.022Z,100642.16
2022-10-09T10:03:26.073Z,100628.06
2022-10-09T10:06:31.538Z,100631.91
2022-10-09T10:09:34.551Z,100628.88
2022-10-09T10:12:56.391Z,100622.16
2022-10-09T10:16:00.592Z,100625.19
2022-10-09T10:19:04.541Z,100632.47
2022-10-09T10:22:22.958Z,100623.78
2022-10-09T10:25:30.710Z,100637.25
2022-10-09T10:29:03.238Z,100634.47
2022-10-09T10:32:16.286Z,100640.28
2022-10-09T10:35:23.119Z,100637.00
2022-10-09T10:38:40.010Z,100632.69
2022-10-09T10:41:45.995Z,100630.44
2022-10-09T10:45:01.098Z,100625.12
2022-10-09T10:48:05.587Z,100621.19
2022-10-09T10:51:25.514Z,100622.59
2022-10-09T10:55:03.571Z,100630.13
2022-10-09T10:58:15.522Z,100626.25
2022-10-09T11:01:46.644Z,100624.59
2022-10-09T11:04:58.499Z,100620.75
2022-10-09T11:08:20.515Z,100614.69
2022-10-09T11:11:40.566Z,100614.84
2022-10-09T11:15:06.940Z,100614.91
2022-10-09T11:18:41.206Z,100605.31
2022-10-09T11:22:00.665Z,100610.00
2022-10-09T11:25:22.870Z,100613.66
2022-10-09T11:28:37.700Z,100605.44
2022-10-09T11:31:54.000Z,100600.78
2022-10-09T11:35:02.615Z,100592.50
2022-10-09T11:38:12.708Z,100593.53
2022-10-09T11:41:16.224Z,100590.75
2022-10-09T11:44:24.896Z,100593.37
2022-10-09T11:47:48.356Z,100580.47
2022-10-09T11:50:58.436Z,100579.31
2022-10-09T11:54:03.194Z,100580.44
2022-10-09T11:57:06.570Z,100579.34
2022-10-09T12:00:10.681Z,100577.44
2022-10-09T12:03:35.249Z,100573.09
2022-10-09T12:06:49.766Z,100569.37
2022-10-09T12:09:52.599Z,100567.94
2022-10-09T12:13:00.250Z,100570.88
2022-10-09T12:16:03.689Z,100570.84
2022-10-09T12:19:19.187Z,100562.69
2022-10-09T12:22:27.600Z,100565.84
2022-10-09T12:25:38.616Z,100563.53
2022-10-09T12:28:53.057Z,100563.28
2022-10-09T12:32:04.423Z,100566.72
2022-10-09T12:35:36.527Z,100563.63
2022-10-09T12:38:39.529Z,100561.94
2022-10-09T12:41:44.184Z,100560.97
2022-10-09T12:44:47.343Z,100556.34
2022-10-09T12:47:50.887Z,100547.91
2022-10-09T12:50:54.303Z,100556.88
2022-10-09T12:53:57.454Z,100554.25
2022-10-09T12:57:01.096Z,100548.25
2022-10-09T13:00:05.478Z,100550.16
2022-10-09T13:03:26.173Z,100538.44
2022-10-09T13:06:45.557Z,100540.72
2022-10-09T13:09:48.405Z,100525.75
2022-10-09T13:12:54.702Z,100528.94
2022-10-09T13:16:06.488Z,100529.97
2022-10-09T13:19:39.084Z,100525.59
2022-10-09T13:23:00.383Z,100533.53
2022-10-09T13:26:05.230Z,100514.84
2022-10-09T13:29:08.157Z,100517.69
2022-10-09T13:32:16.064Z,100523.78
2022-10-09T13:35:18.759Z,100514.25
2022-10-09T13:38:23.680Z,100512.13
2022-10-09T13:41:29.468Z,100515.06
2022-10-09T13:44:32.460Z,100510.03
2022-10-09T13:47:35.160Z,100504.91
2022-10-09T13:50:41.040Z,100510.06
2022-10-09T13:53:43.780Z,100505.09
2022-10-09T13:56:47.259Z,100507.06
2022-10-09T13:59:49.945Z,100511.91
2022-10-09T14:02:55.304Z,100507.91
2022-10-09T14:05:59.966Z,100498.88
2022-10-09T14:09:06.856Z,100502.78
2022-10-09T14:12:11.427Z,100500.31
2022-10-09T14:15:14.437Z,100505.91
2022-10-09T14:18:17.720Z,100493.63
2022-10-09T14:21:20.474Z,100498.50
2022-10-09T14:24:24.658Z,100496.66
2022-10-09T14:27:27.447Z,100502.44
2022-10-09T14:30:30.560Z,100499.16
2022-10-09T14:33:33.550Z,100498.47
2022-10-09T14:36:39.467Z,100489.84
2022-10-09T14:39:43.926Z,100495.53
2022-10-09T14:42:47.314Z,100488.34
2022-10-09T14:45:50.303Z,100480.81
2022-10-09T14:48:57.929Z,100491.37
2022-10-09T14:52:00.789Z,100502.09
2022-10-09T14:55:04.175Z,100489.19
2022-10-09T14:58:08.233Z,100490.50
2022-10-09T15:04:38.953Z,100485.13
2022-10-09T15:07:41.967Z,100490.38
2022-10-09T15:10:44.964Z,100490.53
2022-10-09T15:13:47.987Z,100496.88
2022-10-09T15:16:50.679Z,100497.34
2022-10-09T15:19:54.396Z,100495.53
2022-10-09T15:22:57.198Z,100508.41
2022-10-09T15:26:00.953Z,100504.69
2022-10-09T15:29:06.547Z,100502.91
2022-10-09T15:32:10.542Z,100509.59
2022-10-09T15:35:13.234Z,100501.59
2022-10-09T15:38:19.601Z,100504.16
2022-10-09T15:41:29.184Z,100504.47
2022-10-09T15:44:33.720Z,100512.13
2022-10-09T15:47:50.358Z,100515.09
2022-10-09T15:50:56.817Z,100517.28
2022-10-09T15:54:00.768Z,100514.94
2022-10-09T15:57:04.640Z,100509.50
2022-10-09T16:00:08.398Z,100518.94
2022-10-09T16:03:15.012Z,100513.09
2022-10-09T16:06:24.782Z,100508.22
2022-10-09T16:09:35.776Z,100511.56
2022-10-09T16:12:38.574Z,100516.72
2022-10-09T16:15:50.070Z,100515.13
2022-10-09T16:18:53.543Z,100525.00
2022-10-09T16:21:56.563Z,100514.97
2022-10-09T16:24:59.277Z,100521.78
2022-10-09T16:28:02.449Z,100527.16
2022-10-09T16:31:05.290Z,100531.66
2022-10-09T16:34:08.420Z,100533.56
2022-10-09T16:37:11.123Z,100541.00
2022-10-09T16:40:14.445Z,100551.63
2022-10-09T16:43:17.158Z,100553.97
2022-10-09T16:46:29.710Z,100555.19
2022-10-09T16:49:32.511Z,100552.44
2022-10-09T16:52:36.699Z,100555.63
2022-10-09T16:55:39.446Z,100554.84
2022-10-09T16:58:43.987Z,100557.19
2022-10-09T17:01:48.017Z,100561.09
2022-10-09T17:04:51.321Z,100561.09
2022-10-09T17:07:54.608Z,100566.16
2022-10-09T17:10:57.970Z,100559.13
2022-10-09T17:14:01.076Z,100564.97
2022-10-09T17:17:05.654Z,100564.56
2022-10-09T17:20:09.193Z,100565.31
2022-10-09T17:23:12.272Z,100574.31
2022-10-09T17:26:17.717Z,100573.50
2022-10-09T17:29:24.702Z,100580.44
2022-10-09T17:32:27.784Z,100574.16
2022-10-09T17:35:30.955Z,100571.41
2022-10-09T17:38:33.828Z,100578.72
2022-10-09T17:41:36.886Z,100584.12
2022-10-09T17:44:40.000Z,100583.31
2022-10-09T17:47:43.271Z,100579.84
2022-10-09T17:50:55.914Z,100585.72
2022-10-09T17:54:04.041Z,100593.09
2022-10-09T17:57:12.775Z,100594.97
2022-10-09T18:00:19.717Z,100594.97
2022-10-09T18:03:25.088Z,100596.47
2022-10-09T18:06:31.914Z,100598.34
2022-10-09T18:09:35.401Z,100601.06
2022-10-09T18:12:38.596Z,100607.72
2022-10-09T18:15:44.053Z,100605.31
2022-10-09T18:18:50.209Z,100606.06
2022-10-09T18:21:53.580Z,100604.69
2022-10-09T18:24:56.961Z,100602.19
2022-10-09T18:28:01.858Z,100595.88
2022-10-09T18:31:13.314Z,100601.06
2022-10-09T18:34:17.093Z,100605.09
2022-10-09T18:37:20.728Z,100617.72
2022-10-09T18:40:24.111Z,100608.69
2022-10-09T18:43:28.290Z,100612.28
2022-10-09T18:46:36.846Z,100610.09
2022-10-09T18:49:50.202Z,100610.53
2022-10-09T18:52:54.761Z,100611.97
2022-10-09T18:55:58.730Z,100618.47
2022-10-09T18:59:04.974Z,100629.63
2022-10-09T19:02:08.370Z,100633.56
2022-10-09T19:05:11.639Z,100629.09
2022-10-09T19:08:14.864Z,100623.16
2022-10-09T19:11:19.322Z,100627.28
2022-10-09T19:14:22.674Z,100629.47
2022-10-09T19:17:26.443Z,100638.94
2022-10-09T19:20:29.893Z,100643.09
2022-10-09T19:23:32.966Z,100645.50
2022-10-09T19:26:36.104Z,100652.22
2022-10-09T19:29:39.165Z,100652.59
2022-10-09T19:32:41.981Z,100654.97
2022-10-09T19:35:49.871Z,100653.41
2022-10-09T19:38:52.937Z,100655.72
2022-10-09T19:41:56.344Z,100656.41
2022-10-09T19:44:59.116Z,100653.97
2022-10-09T19:48:02.499Z,100660.09
2022-10-09T19:51:07.345Z,100663.25
2022-10-09T19:54:10.598Z,100661.25
2022-10-09T19:57:13.168Z,100656.97
2022-10-09T20:00:18.026Z,100675.69
2022-10-09T20:03:21.113Z,100674.00
2022-10-09T20:06:26.015Z,100677.69
2022-10-09T20:09:29.309Z,100671.13
2022-10-09T20:12:32.054Z,100672.25
2022-10-09T20:15:35.168Z,100674.03
2022-10-09T20:18:42.479Z,100668.16
2022-10-09T20:21:45.565Z,100667.94
2022-10-09T20:24:48.248Z,100672.31
2022-10-09T20:27:53.038Z,100678.50
2022-10-09T20:30:57.263Z,100676.09
2022-10-09T20:34:00.383Z,100676.28
2022-10-09T20:37:03.102Z,100673.16
2022-10-09T20:40:06.663Z,100673.06
2022-10-09T20:43:09.400Z,100669.88
2022-10-09T20:46:14.805Z,100674.84
2022-10-09T20:49:17.760Z,100670.63
2022-10-09T20:52:21.077Z,100672.53
2022-10-09T20:55:24.216Z,100674.47
2022-10-09T20:58:28.009Z,100673.44
2022-10-09T21:01:30.925Z,100690.59
2022-10-09T21:04:34.050Z,100685.47
2022-10-09T21:07:37.187Z,100686.62
2022-10-09T21:10:47.743Z,100690.44
2022-10-09T21:13:50.559Z,100689.69
2022-10-09T21:16:53.637Z,100683.38
2022-10-09T21:19:57.741Z,100690.03
2022-10-09T21:23:00.716Z,100690.56
2022-10-09T21:26:03.988Z,100691.59
2022-10-09T21:29:07.150Z,100695.00
2022-10-09T21:32:09.872Z,100693.47
2022-10-09T21:35:12.901Z,100696.84
2022-10-09T21:38:19.642Z,100700.22
2022-10-09T21:41:23.255Z,100700.22
2022-10-09T21:44:25.934Z,100698.69
2022-10-09T21:47:29.215Z,100688.50
2022-10-09T21:50:33.242Z,100691.50
2022-10-09T21:53:36.235Z,100696.66
2022-10-09T21:56:38.934Z,100691.69
2022-10-09T21:59:41.965Z,100688.28
2022-10-09T22:02:44.659Z,100682.78
2022-10-09T22:05:47.713Z,100682.25
2022-10-09T22:08:50.531Z,100679.59
2022-10-09T22:11:53.506Z,100677.78
2022-10-09T22:14:56.518Z,100671.16
2022-10-09T22:17:59.523Z,100668.09
2022-10-09T22:21:08.450Z,100664.47
2022-10-09T22:24:11.492Z,100658.59
2022-10-09T22:27:15.423Z,100653.63
2022-10-09T22:30:18.429Z,100659.16
2022-10-09T22:33:21.339Z,100660.50
2022-10-09T22:36:26.968Z,100657.87
2022-10-09T22:39:29.819Z,100658.97
2022-10-09T22:42:33.623Z,100655.81
2022-10-09T22:45:39.516Z,100664.00
2022-10-09T22:48:43.046Z,100662.81
2022-10-09T22:51:46.093Z,100661.78
2022-10-09T22:54:49.051Z,100670.50
2022-10-09T22:57:51.790Z,100672.50
2022-10-09T23:00:55.436Z,100669.25
2022-10-09T23:03:59.597Z,100669.09
2022-10-09T23:07:03.098Z,100663.56
2022-10-09T23:10:06.110Z,100664.31
2022-10-09T23:13:09.421Z,100673.25
2022-10-09T23:16:14.703Z,100676.53
2022-10-09T23:19:18.011Z,100684.22
2022-10-09T23:22:21.615Z,100683.97
2022-10-09T23:25:24.602Z,100694.69
2022-10-09T23:28:27.891Z,100695.78
2022-10-09T23:31:31.652Z,100696.91
2022-10-09T23:34:34.541Z,100693.78
2022-10-09T23:37:37.589Z,100688.69
2022-10-09T23:40:40.293Z,100698.84
2022-10-09T23:43:44.479Z,100692.19
2022-10-09T23:46:47.260Z,100697.28
2022-10-09T23:49:50.263Z,100701.06
2022-10-09T23:52:53.206Z,100691.00
2022-10-09T23:55:57.311Z,100689.78
2022-10-09T23:59:02.465Z,100683.25
